sensor_id;sensor_type;location;lat;lon;timestamp;P1;durP1;ratioP1;P2;durP2;ratioP2
31206;SDS011;17834;52.992;8.856;2022-10-16T00:00:39;4.28;;;1.70;;
31206;SDS011;17834;52.992;8.856;2022-10-16T00:03:06;5.88;;;1.95;;
31206;SDS011;17834;52.992;8.856;2022-10-16T00:05:32;3.38;;;1.40;;
31206;SDS011;17834;52.992;8.856;2022-10-16T00:07:58;2.53;;;1.48;;
31206;SDS011;17834;52.992;8.856;2022-10-16T00:10:24;3.83;;;1.48;;
31206;SDS011;17834;52.992;8.856;2022-10-16T00:12:50;3.50;;;1.90;;
31206;SDS011;17834;52.992;8.856;2022-10-16T00:15:16;5.00;;;1.90;;
31206;SDS011;17834;52.992;8.856;2022-10-16T00:17:42;4.10;;;1.60;;
31206;SDS011;17834;52.992;8.856;2022-10-16T00:20:08;3.47;;;1.85;;
31206;SDS011;17834;52.992;8.856;2022-10-16T00:22:34;3.83;;;1.98;;
31206;SDS011;17834;52.992;8.856;2022-10-16T00:25:00;4.18;;;1.77;;
31206;SDS011;17834;52.992;8.856;2022-10-16T00:27:26;3.55;;;1.80;;
31206;SDS011;17834;52.992;8.856;2022-10-16T00:29:52;3.33;;;2.20;;
31206;SDS011;17834;52.992;8.856;2022-10-16T00:32:19;3.88;;;1.30;;
31206;SDS011;17834;52.992;8.856;2022-10-16T00:34:45;5.60;;;1.80;;
31206;SDS011;17834;52.992;8.856;2022-10-16T00:37:12;7.30;;;1.63;;
31206;SDS011;17834;52.992;8.856;2022-10-16T00:39:38;3.65;;;1.30;;
31206;SDS011;17834;52.992;8.856;2022-10-16T00:42:04;4.60;;;1.70;;
31206;SDS011;17834;52.992;8.856;2022-10-16T00:44:52;4.45;;;1.58;;
31206;SDS011;17834;52.992;8.856;2022-10-16T00:47:28;3.28;;;1.77;;
31206;SDS011;17834;52.992;8.856;2022-10-16T00:49:56;2.72;;;1.52;;
31206;SDS011;17834;52.992;8.856;2022-10-16T00:52:24;5.40;;;1.60;;
31206;SDS011;17834;52.992;8.856;2022-10-16T00:54:50;3.63;;;1.55;;
31206;SDS011;17834;52.992;8.856;2022-10-16T00:57:18;5.55;;;1.60;;
31206;SDS011;17834;52.992;8.856;2022-10-16T00:59:44;6.20;;;1.35;;
31206;SDS011;17834;52.992;8.856;2022-10-16T01:02:12;5.18;;;2.30;;
31206;SDS011;17834;52.992;8.856;2022-10-16T01:04:42;3.90;;;1.52;;
31206;SDS011;17834;52.992;8.856;2022-10-16T01:09:42;3.17;;;1.60;;
31206;SDS011;17834;52.992;8.856;2022-10-16T01:14:53;3.03;;;1.80;;
31206;SDS011;17834;52.992;8.856;2022-10-16T01:17:25;4.13;;;1.92;;
31206;SDS011;17834;52.992;8.856;2022-10-16T01:22:35;3.03;;;1.75;;
31206;SDS011;17834;52.992;8.856;2022-10-16T01:25:03;3.50;;;1.83;;
31206;SDS011;17834;52.992;8.856;2022-10-16T01:27:31;3.67;;;2.00;;
31206;SDS011;17834;52.992;8.856;2022-10-16T01:30:04;4.70;;;1.60;;
31206;SDS011;17834;52.992;8.856;2022-10-16T01:32:38;7.05;;;2.10;;
31206;SDS011;17834;52.992;8.856;2022-10-16T01:35:19;6.10;;;2.28;;
31206;SDS011;17834;52.992;8.856;2022-10-16T01:38:04;5.43;;;2.00;;
31206;SDS011;17834;52.992;8.856;2022-10-16T01:40:32;4.53;;;1.83;;
31206;SDS011;17834;52.992;8.856;2022-10-16T01:43:00;4.38;;;2.22;;
31206;SDS011;17834;52.992;8.856;2022-10-16T01:45:29;6.07;;;2.10;;
31206;SDS011;17834;52.992;8.856;2022-10-16T01:47:56;4.38;;;2.17;;
31206;SDS011;17834;52.992;8.856;2022-10-16T01:50:24;5.38;;;2.15;;
31206;SDS011;17834;52.992;8.856;2022-10-16T01:52:50;9.07;;;2.00;;
31206;SDS011;17834;52.992;8.856;2022-10-16T01:55:22;3.85;;;2.28;;
31206;SDS011;17834;52.992;8.856;2022-10-16T01:57:50;6.68;;;1.90;;
31206;SDS011;17834;52.992;8.856;2022-10-16T02:00:17;4.30;;;2.20;;
31206;SDS011;17834;52.992;8.856;2022-10-16T02:02:45;4.60;;;2.60;;
31206;SDS011;17834;52.992;8.856;2022-10-16T02:05:49;7.43;;;2.30;;
31206;SDS011;17834;52.992;8.856;2022-10-16T02:08:06;6.18;;;2.35;;
31206;SDS011;17834;52.992;8.856;2022-10-16T02:10:32;9.63;;;2.55;;
31206;SDS011;17834;52.992;8.856;2022-10-16T02:13:09;4.57;;;2.45;;
31206;SDS011;17834;52.992;8.856;2022-10-16T02:15:35;4.35;;;2.45;;
31206;SDS011;17834;52.992;8.856;2022-10-16T02:18:05;4.97;;;2.58;;
31206;SDS011;17834;52.992;8.856;2022-10-16T02:20:37;4.82;;;2.20;;
31206;SDS011;17834;52.992;8.856;2022-10-16T02:23:06;5.93;;;2.47;;
31206;SDS011;17834;52.992;8.856;2022-10-16T02:25:35;7.40;;;2.70;;
31206;SDS011;17834;52.992;8.856;2022-10-16T02:28:13;6.97;;;2.63;;
31206;SDS011;17834;52.992;8.856;2022-10-16T02:30:43;5.32;;;2.25;;
31206;SDS011;17834;52.992;8.856;2022-10-16T02:33:11;8.70;;;2.47;;
31206;SDS011;17834;52.992;8.856;2022-10-16T02:35:38;7.07;;;1.98;;
31206;SDS011;17834;52.992;8.856;2022-10-16T02:38:05;5.80;;;2.15;;
31206;SDS011;17834;52.992;8.856;2022-10-16T02:40:31;7.63;;;2.63;;
31206;SDS011;17834;52.992;8.856;2022-10-16T02:42:58;4.13;;;2.40;;
31206;SDS011;17834;52.992;8.856;2022-10-16T02:45:24;6.82;;;2.97;;
31206;SDS011;17834;52.992;8.856;2022-10-16T02:47:50;5.25;;;2.40;;
31206;SDS011;17834;52.992;8.856;2022-10-16T02:50:16;5.63;;;2.33;;
31206;SDS011;17834;52.992;8.856;2022-10-16T02:52:42;5.78;;;2.38;;
31206;SDS011;17834;52.992;8.856;2022-10-16T02:55:09;7.15;;;2.70;;
31206;SDS011;17834;52.992;8.856;2022-10-16T02:57:35;5.55;;;2.78;;
31206;SDS011;17834;52.992;8.856;2022-10-16T03:00:02;6.45;;;3.10;;
31206;SDS011;17834;52.992;8.856;2022-10-16T03:02:28;12.00;;;2.70;;
31206;SDS011;17834;52.992;8.856;2022-10-16T03:04:54;5.75;;;2.63;;
31206;SDS011;17834;52.992;8.856;2022-10-16T03:07:20;7.55;;;3.20;;
31206;SDS011;17834;52.992;8.856;2022-10-16T03:09:46;7.13;;;3.13;;
31206;SDS011;17834;52.992;8.856;2022-10-16T03:12:12;7.15;;;2.95;;
31206;SDS011;17834;52.992;8.856;2022-10-16T03:14:38;8.93;;;3.30;;
31206;SDS011;17834;52.992;8.856;2022-10-16T03:17:05;7.57;;;3.15;;
31206;SDS011;17834;52.992;8.856;2022-10-16T03:19:31;8.73;;;3.33;;
31206;SDS011;17834;52.992;8.856;2022-10-16T03:21:57;10.77;;;4.13;;
31206;SDS011;17834;52.992;8.856;2022-10-16T03:24:23;9.40;;;4.10;;
31206;SDS011;17834;52.992;8.856;2022-10-16T03:26:49;8.60;;;4.53;;
31206;SDS011;17834;52.992;8.856;2022-10-16T03:29:15;12.32;;;4.38;;
31206;SDS011;17834;52.992;8.856;2022-10-16T03:31:41;9.27;;;4.80;;
31206;SDS011;17834;52.992;8.856;2022-10-16T03:34:07;10.88;;;4.40;;
31206;SDS011;17834;52.992;8.856;2022-10-16T03:36:33;9.57;;;5.05;;
31206;SDS011;17834;52.992;8.856;2022-10-16T03:38:59;17.20;;;6.35;;
31206;SDS011;17834;52.992;8.856;2022-10-16T03:41:25;15.52;;;5.28;;
31206;SDS011;17834;52.992;8.856;2022-10-16T03:43:51;11.82;;;5.22;;
31206;SDS011;17834;52.992;8.856;2022-10-16T03:46:17;11.15;;;5.45;;
31206;SDS011;17834;52.992;8.856;2022-10-16T03:48:43;12.75;;;5.72;;
31206;SDS011;17834;52.992;8.856;2022-10-16T03:51:09;16.98;;;5.70;;
31206;SDS011;17834;52.992;8.856;2022-10-16T03:53:35;15.27;;;6.57;;
31206;SDS011;17834;52.992;8.856;2022-10-16T03:56:01;12.80;;;6.00;;
31206;SDS011;17834;52.992;8.856;2022-10-16T03:58:27;15.88;;;6.30;;
31206;SDS011;17834;52.992;8.856;2022-10-16T04:00:53;13.55;;;6.03;;
31206;SDS011;17834;52.992;8.856;2022-10-16T04:03:19;19.77;;;7.55;;
31206;SDS011;17834;52.992;8.856;2022-10-16T04:05:46;14.68;;;6.80;;
31206;SDS011;17834;52.992;8.856;2022-10-16T04:08:12;16.58;;;7.40;;
31206;SDS011;17834;52.992;8.856;2022-10-16T04:10:38;10.77;;;5.72;;
31206;SDS011;17834;52.992;8.856;2022-10-16T04:13:04;15.95;;;6.82;;
31206;SDS011;17834;52.992;8.856;2022-10-16T04:15:30;15.85;;;6.60;;
31206;SDS011;17834;52.992;8.856;2022-10-16T04:17:56;22.77;;;10.32;;
31206;SDS011;17834;52.992;8.856;2022-10-16T04:20:22;20.00;;;8.70;;
31206;SDS011;17834;52.992;8.856;2022-10-16T04:22:48;14.73;;;7.15;;
31206;SDS011;17834;52.992;8.856;2022-10-16T04:25:14;16.45;;;6.72;;
31206;SDS011;17834;52.992;8.856;2022-10-16T04:27:40;17.23;;;7.55;;
31206;SDS011;17834;52.992;8.856;2022-10-16T04:30:06;15.77;;;7.43;;
31206;SDS011;17834;52.992;8.856;2022-10-16T04:32:32;17.10;;;7.60;;
31206;SDS011;17834;52.992;8.856;2022-10-16T04:34:58;14.73;;;7.50;;
31206;SDS011;17834;52.992;8.856;2022-10-16T04:37:25;14.48;;;7.20;;
31206;SDS011;17834;52.992;8.856;2022-10-16T04:39:51;14.85;;;7.10;;
31206;SDS011;17834;52.992;8.856;2022-10-16T04:42:17;17.65;;;7.43;;
31206;SDS011;17834;52.992;8.856;2022-10-16T04:44:44;19.77;;;7.22;;
31206;SDS011;17834;52.992;8.856;2022-10-16T04:47:10;19.67;;;8.80;;
31206;SDS011;17834;52.992;8.856;2022-10-16T04:49:36;17.27;;;7.57;;
31206;SDS011;17834;52.992;8.856;2022-10-16T04:52:02;14.52;;;7.53;;
31206;SDS011;17834;52.992;8.856;2022-10-16T04:54:28;15.93;;;7.78;;
31206;SDS011;17834;52.992;8.856;2022-10-16T04:56:54;15.52;;;7.85;;
31206;SDS011;17834;52.992;8.856;2022-10-16T04:59:20;16.17;;;7.47;;
31206;SDS011;17834;52.992;8.856;2022-10-16T05:01:47;19.45;;;8.38;;
31206;SDS011;17834;52.992;8.856;2022-10-16T05:04:13;18.98;;;8.07;;
31206;SDS011;17834;52.992;8.856;2022-10-16T05:06:40;16.13;;;7.40;;
31206;SDS011;17834;52.992;8.856;2022-10-16T05:09:06;14.77;;;7.88;;
31206;SDS011;17834;52.992;8.856;2022-10-16T05:11:32;18.67;;;7.53;;
31206;SDS011;17834;52.992;8.856;2022-10-16T05:13:59;22.05;;;7.95;;
31206;SDS011;17834;52.992;8.856;2022-10-16T05:16:25;16.27;;;8.63;;
31206;SDS011;17834;52.992;8.856;2022-10-16T05:18:51;18.02;;;9.25;;
31206;SDS011;17834;52.992;8.856;2022-10-16T05:21:17;18.17;;;8.32;;
31206;SDS011;17834;52.992;8.856;2022-10-16T05:23:43;17.27;;;8.02;;
31206;SDS011;17834;52.992;8.856;2022-10-16T05:26:09;19.27;;;8.60;;
31206;SDS011;17834;52.992;8.856;2022-10-16T05:28:36;21.42;;;9.32;;
31206;SDS011;17834;52.992;8.856;2022-10-16T05:31:05;21.38;;;9.07;;
31206;SDS011;17834;52.992;8.856;2022-10-16T05:33:31;24.02;;;9.13;;
31206;SDS011;17834;52.992;8.856;2022-10-16T05:36:01;20.00;;;8.32;;
31206;SDS011;17834;52.992;8.856;2022-10-16T05:38:28;19.63;;;8.75;;
31206;SDS011;17834;52.992;8.856;2022-10-16T05:40:54;21.85;;;9.48;;
31206;SDS011;17834;52.992;8.856;2022-10-16T05:43:21;16.13;;;8.20;;
31206;SDS011;17834;52.992;8.856;2022-10-16T05:48:39;17.80;;;7.90;;
31206;SDS011;17834;52.992;8.856;2022-10-16T05:51:07;19.73;;;8.90;;
31206;SDS011;17834;52.992;8.856;2022-10-16T05:53:33;19.40;;;8.80;;
31206;SDS011;17834;52.992;8.856;2022-10-16T05:56:00;16.20;;;7.22;;
31206;SDS011;17834;52.992;8.856;2022-10-16T05:58:30;18.05;;;7.80;;
31206;SDS011;17834;52.992;8.856;2022-10-16T06:00:57;23.50;;;8.93;;
31206;SDS011;17834;52.992;8.856;2022-10-16T06:03:23;17.65;;;7.22;;
31206;SDS011;17834;52.992;8.856;2022-10-16T06:05:49;20.10;;;7.53;;
31206;SDS011;17834;52.992;8.856;2022-10-16T06:08:15;16.13;;;7.85;;
31206;SDS011;17834;52.992;8.856;2022-10-16T06:10:42;15.75;;;7.25;;
31206;SDS011;17834;52.992;8.856;2022-10-16T06:13:08;17.02;;;7.78;;
31206;SDS011;17834;52.992;8.856;2022-10-16T06:15:34;17.48;;;7.90;;
31206;SDS011;17834;52.992;8.856;2022-10-16T06:18:00;17.48;;;7.78;;
31206;SDS011;17834;52.992;8.856;2022-10-16T06:20:27;14.23;;;7.05;;
31206;SDS011;17834;52.992;8.856;2022-10-16T06:22:53;17.88;;;7.53;;
31206;SDS011;17834;52.992;8.856;2022-10-16T06:25:19;20.58;;;7.70;;
31206;SDS011;17834;52.992;8.856;2022-10-16T06:27:45;16.17;;;7.55;;
31206;SDS011;17834;52.992;8.856;2022-10-16T06:30:11;16.60;;;8.23;;
31206;SDS011;17834;52.992;8.856;2022-10-16T06:32:37;13.98;;;7.25;;
31206;SDS011;17834;52.992;8.856;2022-10-16T06:35:03;16.92;;;6.88;;
31206;SDS011;17834;52.992;8.856;2022-10-16T06:37:29;13.93;;;6.88;;
31206;SDS011;17834;52.992;8.856;2022-10-16T06:39:55;13.80;;;7.13;;
31206;SDS011;17834;52.992;8.856;2022-10-16T06:42:21;16.38;;;7.20;;
31206;SDS011;17834;52.992;8.856;2022-10-16T06:44:47;14.20;;;6.43;;
31206;SDS011;17834;52.992;8.856;2022-10-16T06:47:14;15.70;;;6.43;;
31206;SDS011;17834;52.992;8.856;2022-10-16T06:49:40;13.65;;;7.40;;
31206;SDS011;17834;52.992;8.856;2022-10-16T06:52:06;13.68;;;6.30;;
31206;SDS011;17834;52.992;8.856;2022-10-16T06:54:32;14.98;;;7.60;;
31206;SDS011;17834;52.992;8.856;2022-10-16T06:56:58;14.32;;;6.88;;
31206;SDS011;17834;52.992;8.856;2022-10-16T06:59:26;11.70;;;6.15;;
31206;SDS011;17834;52.992;8.856;2022-10-16T07:01:52;18.98;;;6.82;;
31206;SDS011;17834;52.992;8.856;2022-10-16T07:04:18;16.98;;;7.65;;
31206;SDS011;17834;52.992;8.856;2022-10-16T07:06:44;15.80;;;6.60;;
31206;SDS011;17834;52.992;8.856;2022-10-16T07:09:11;14.45;;;6.93;;
31206;SDS011;17834;52.992;8.856;2022-10-16T07:11:37;11.85;;;6.03;;
31206;SDS011;17834;52.992;8.856;2022-10-16T07:14:04;14.15;;;6.10;;
31206;SDS011;17834;52.992;8.856;2022-10-16T07:16:31;11.75;;;5.85;;
31206;SDS011;17834;52.992;8.856;2022-10-16T07:18:58;11.48;;;6.00;;
31206;SDS011;17834;52.992;8.856;2022-10-16T07:21:25;15.88;;;6.90;;
31206;SDS011;17834;52.992;8.856;2022-10-16T07:23:52;10.98;;;5.88;;
31206;SDS011;17834;52.992;8.856;2022-10-16T07:26:19;13.90;;;5.97;;
31206;SDS011;17834;52.992;8.856;2022-10-16T07:28:45;10.65;;;5.47;;
31206;SDS011;17834;52.992;8.856;2022-10-16T07:31:11;10.82;;;5.90;;
31206;SDS011;17834;52.992;8.856;2022-10-16T07:33:38;9.52;;;4.55;;
31206;SDS011;17834;52.992;8.856;2022-10-16T07:36:05;14.98;;;5.47;;
31206;SDS011;17834;52.992;8.856;2022-10-16T07:38:31;10.85;;;5.15;;
31206;SDS011;17834;52.992;8.856;2022-10-16T07:40:58;11.90;;;5.10;;
31206;SDS011;17834;52.992;8.856;2022-10-16T07:43:25;9.68;;;4.35;;
31206;SDS011;17834;52.992;8.856;2022-10-16T07:45:51;8.93;;;4.15;;
31206;SDS011;17834;52.992;8.856;2022-10-16T07:48:18;9.23;;;3.78;;
31206;SDS011;17834;52.992;8.856;2022-10-16T07:50:44;6.97;;;3.92;;
31206;SDS011;17834;52.992;8.856;2022-10-16T07:53:10;5.82;;;3.40;;
31206;SDS011;17834;52.992;8.856;2022-10-16T07:55:37;6.90;;;3.50;;
31206;SDS011;17834;52.992;8.856;2022-10-16T07:58:03;8.05;;;3.10;;
31206;SDS011;17834;52.992;8.856;2022-10-16T08:00:30;6.90;;;3.05;;
31206;SDS011;17834;52.992;8.856;2022-10-16T08:02:57;5.90;;;3.13;;
31206;SDS011;17834;52.992;8.856;2022-10-16T08:05:25;7.55;;;2.80;;
31206;SDS011;17834;52.992;8.856;2022-10-16T08:07:51;5.43;;;2.85;;
31206;SDS011;17834;52.992;8.856;2022-10-16T08:10:18;6.40;;;2.75;;
31206;SDS011;17834;52.992;8.856;2022-10-16T08:12:45;6.70;;;3.03;;
31206;SDS011;17834;52.992;8.856;2022-10-16T08:15:11;4.78;;;3.20;;
31206;SDS011;17834;52.992;8.856;2022-10-16T08:17:37;5.25;;;3.13;;
31206;SDS011;17834;52.992;8.856;2022-10-16T08:20:03;5.15;;;3.08;;
31206;SDS011;17834;52.992;8.856;2022-10-16T08:22:29;8.35;;;3.70;;
31206;SDS011;17834;52.992;8.856;2022-10-16T08:24:55;5.88;;;3.38;;
31206;SDS011;17834;52.992;8.856;2022-10-16T08:27:21;7.60;;;3.00;;
31206;SDS011;17834;52.992;8.856;2022-10-16T08:29:48;7.20;;;2.42;;
31206;SDS011;17834;52.992;8.856;2022-10-16T08:32:14;7.28;;;3.13;;
31206;SDS011;17834;52.992;8.856;2022-10-16T08:34:40;6.40;;;2.33;;
31206;SDS011;17834;52.992;8.856;2022-10-16T08:37:06;3.38;;;2.17;;
31206;SDS011;17834;52.992;8.856;2022-10-16T08:39:36;4.00;;;2.70;;
31206;SDS011;17834;52.992;8.856;2022-10-16T08:50:08;3.33;;;1.92;;
31206;SDS011;17834;52.992;8.856;2022-10-16T08:52:35;4.32;;;1.65;;
31206;SDS011;17834;52.992;8.856;2022-10-16T08:55:04;8.00;;;3.17;;
31206;SDS011;17834;52.992;8.856;2022-10-16T08:57:30;7.00;;;2.15;;
31206;SDS011;17834;52.992;8.856;2022-10-16T08:59:58;5.93;;;2.00;;
31206;SDS011;17834;52.992;8.856;2022-10-16T09:02:38;3.63;;;1.55;;
31206;SDS011;17834;52.992;8.856;2022-10-16T09:05:14;2.97;;;1.30;;
31206;SDS011;17834;52.992;8.856;2022-10-16T09:07:46;6.43;;;1.60;;
31206;SDS011;17834;52.992;8.856;2022-10-16T09:10:19;4.78;;;1.52;;
31206;SDS011;17834;52.992;8.856;2022-10-16T09:12:55;4.75;;;1.80;;
31206;SDS011;17834;52.992;8.856;2022-10-16T09:18:00;10.05;;;2.40;;
31206;SDS011;17834;52.992;8.856;2022-10-16T09:23:39;5.88;;;1.05;;
31206;SDS011;17834;52.992;8.856;2022-10-16T09:25:47;2.50;;;1.30;;
31206;SDS011;17834;52.992;8.856;2022-10-16T09:28:14;2.72;;;1.20;;
31206;SDS011;17834;52.992;8.856;2022-10-16T09:30:41;4.55;;;1.50;;
31206;SDS011;17834;52.992;8.856;2022-10-16T09:33:07;2.47;;;1.08;;
31206;SDS011;17834;52.992;8.856;2022-10-16T09:38:07;5.78;;;1.08;;
31206;SDS011;17834;52.992;8.856;2022-10-16T09:40:35;4.03;;;1.27;;
31206;SDS011;17834;52.992;8.856;2022-10-16T09:46:00;2.83;;;0.90;;
31206;SDS011;17834;52.992;8.856;2022-10-16T09:48:28;6.15;;;0.80;;
31206;SDS011;17834;52.992;8.856;2022-10-16T09:51:00;4.72;;;0.90;;
31206;SDS011;17834;52.992;8.856;2022-10-16T09:53:36;3.55;;;1.20;;
31206;SDS011;17834;52.992;8.856;2022-10-16T09:56:03;4.72;;;1.15;;
31206;SDS011;17834;52.992;8.856;2022-10-16T09:58:31;2.70;;;0.88;;
31206;SDS011;17834;52.992;8.856;2022-10-16T10:00:58;3.25;;;1.05;;
31206;SDS011;17834;52.992;8.856;2022-10-16T10:06:05;3.40;;;0.80;;
31206;SDS011;17834;52.992;8.856;2022-10-16T10:08:32;3.03;;;0.68;;
31206;SDS011;17834;52.992;8.856;2022-10-16T10:10:58;3.60;;;1.00;;
31206;SDS011;17834;52.992;8.856;2022-10-16T10:13:24;3.38;;;0.90;;
31206;SDS011;17834;52.992;8.856;2022-10-16T10:15:52;5.82;;;0.98;;
31206;SDS011;17834;52.992;8.856;2022-10-16T10:18:19;3.08;;;0.88;;
31206;SDS011;17834;52.992;8.856;2022-10-16T10:20:46;2.15;;;0.80;;
31206;SDS011;17834;52.992;8.856;2022-10-16T10:23:23;6.03;;;1.13;;
31206;SDS011;17834;52.992;8.856;2022-10-16T10:30:46;1.83;;;0.73;;
31206;SDS011;17834;52.992;8.856;2022-10-16T10:40:56;3.90;;;0.93;;
31206;SDS011;17834;52.992;8.856;2022-10-16T10:43:30;3.73;;;1.03;;
31206;SDS011;17834;52.992;8.856;2022-10-16T10:46:04;3.15;;;0.90;;
31206;SDS011;17834;52.992;8.856;2022-10-16T10:48:41;4.18;;;1.10;;
31206;SDS011;17834;52.992;8.856;2022-10-16T10:51:12;5.05;;;1.20;;
31206;SDS011;17834;52.992;8.856;2022-10-16T10:59:16;4.32;;;0.90;;
31206;SDS011;17834;52.992;8.856;2022-10-16T11:04:38;8.57;;;2.20;;
31206;SDS011;17834;52.992;8.856;2022-10-16T11:07:15;2.25;;;0.73;;
31206;SDS011;17834;52.992;8.856;2022-10-16T11:09:44;3.85;;;0.80;;
31206;SDS011;17834;52.992;8.856;2022-10-16T11:12:13;2.42;;;1.00;;
31206;SDS011;17834;52.992;8.856;2022-10-16T11:14:54;2.15;;;0.93;;
31206;SDS011;17834;52.992;8.856;2022-10-16T11:17:23;3.55;;;1.10;;
31206;SDS011;17834;52.992;8.856;2022-10-16T11:19:55;5.97;;;0.75;;
31206;SDS011;17834;52.992;8.856;2022-10-16T11:22:24;3.38;;;1.05;;
31206;SDS011;17834;52.992;8.856;2022-10-16T11:24:53;3.85;;;0.77;;
31206;SDS011;17834;52.992;8.856;2022-10-16T11:27:27;3.33;;;0.85;;
